Sao Nicolau — EA3912 — position and weather

sailwx.info

Track history (hours):
 
Tides and Currents Weather Stations Pressure Air Temp Water Temp Dewpoint Dewpoint Depression Visibility Wind Speed Wind Dir Waves Ship Positions

Sao Nicolau

Last reported at 2018-Aug-16 13:24 UTC. Time now 2018-Aug-16 20:20 UTC.
Position N 38°42' W 009°25'.

Length 15 m.

Type: Sailing vessel. MMSI: 224130680.

Date/timePositionNaut miles runAvg speedWind from/ knotsBaromVisibWave heightAir tempDewpointWater temp
2018-Aug-16 13:24N 38°42' W 009°25'1 2.7
2018-Aug-16 13:00N 38°41' W 009°24'2 4.3
2018-Aug-16 12:30N 38°41' W 009°21'2 3.8
2018-Aug-16 11:58N 38°41' W 009°18'3 7.0
2018-Aug-16 11:30N 38°41' W 009°14'0 0.4
2018-Aug-16 11:00N 38°42' W 009°14'2 4.9
2018-Aug-16 10:30N 38°41' W 009°18'2 3.6
2018-Aug-16 10:00N 38°40' W 009°19'3 6.3
2018-Aug-16 09:30N 38°41' W 009°23'2 3.0
2018-Aug-16 09:00N 38°42' W 009°25'0 0.0
2018-Aug-14 14:24N 38°42' W 009°25'0 0.0
2018-Aug-14 13:39N 38°42' W 009°25'0 0.0
2018-Aug-14 13:18N 38°42' W 009°25'0 0.0
2018-Aug-14 12:57N 38°42' W 009°25'0 0.7
2018-Aug-14 12:17N 38°42' W 009°25'1 2.0
2018-Aug-14 12:00N 38°41' W 009°24'2 3.4
2018-Aug-14 11:30N 38°40' W 009°22'0 0.6
2018-Aug-14 10:59N 38°41' W 009°23'2 3.5
2018-Aug-14 10:30N 38°42' W 009°24'2 0.1
2018-Aug-13 11:04N 38°40' W 009°26'1 3.6
2018-Aug-13 10:42N 38°41' W 009°24'1 3.4
2018-Aug-13 10:28N 38°41' W 009°24'1 0.0
2018-Aug-11 20:21N 38°42' W 009°25'0 0.5
2018-Aug-11 19:58N 38°42' W 009°25'1 2.0
2018-Aug-11 19:30N 38°41' W 009°26'1 1.1
2018-Aug-11 19:00N 38°41' W 009°27'0 0.9
2018-Aug-11 18:30N 38°41' W 009°26'1 2.1
2018-Aug-11 17:58N 38°42' W 009°25'0 0.0
2018-Aug-11 17:22N 38°42' W 009°25'0 0.0
2018-Aug-11 16:58N 38°42' W 009°25'0 0.0
2018-Aug-11 16:28N 38°42' W 009°25'0 0.0
2018-Aug-11 15:58N 38°42' W 009°25'0 0.0
2018-Aug-11 15:16N 38°42' W 009°25'0 0.0
2018-Aug-11 14:46N 38°42' W 009°25'0 0.0
2018-Aug-11 14:25N 38°42' W 009°25'0 0.0
2018-Aug-11 13:58N 38°42' W 009°25'0 0.5
2018-Aug-11 13:27N 38°42' W 009°25'0 0.0
2018-Aug-11 13:00N 38°42' W 009°25'0 0.0
2018-Aug-11 12:30N 38°42' W 009°25'0 0.4
2018-Aug-11 11:55N 38°42' W 009°25'1 2.1
2018-Aug-11 11:29N 38°41' W 009°25'0 0.8
2018-Aug-11 11:00N 38°41' W 009°25'1 2.0
2018-Aug-11 10:30N 38°42' W 009°24'1 1.7
2018-Aug-11 10:00N 38°42' W 009°25'0 0.0
2018-Aug-10 12:32N 38°42' W 009°25'0 0.0
2018-Aug-10 12:17N 38°42' W 009°25'1 1.9
2018-Aug-10 11:59N 38°41' W 009°24'2 3.2
2018-Aug-10 11:29N 38°40' W 009°23'3 5.3
2018-Aug-10 11:00N 38°40' W 009°20'2 4.9
2018-Aug-10 10:29N 38°41' W 009°22'2 3.6
2018-Aug-10 09:55N 38°42' W 009°25'  
2018-Aug-06 14:56N 38°42' W 009°25'0 0.0
2018-Aug-06 14:27N 38°42' W 009°25'1 1.9
2018-Aug-06 13:59N 38°41' W 009°24'0 1.0
2018-Aug-06 13:30N 38°40' W 009°24'  
Track history (hours):
 
Tides and Currents Weather Stations Pressure Air Temp Water Temp Dewpoint Dewpoint Depression Visibility Wind Speed Wind Dir Waves Ship Positions

Sao Nicolau

Last reported at 2018-Aug-16 13:24 UTC. Time now 2018-Aug-16 20:20 UTC.
Position N 38°42' W 009°25'.

Length 15 m.

Type: Sailing vessel. MMSI: 224130680.

Date/timePositionNaut miles runAvg speedWind from/ knotsBaromVisibWave heightAir tempDewpointWater temp
2018-Aug-16 13:24N 38°42' W 009°25'1 2.7
2018-Aug-16 13:00N 38°41' W 009°24'2 4.3
2018-Aug-16 12:30N 38°41' W 009°21'2 3.8
2018-Aug-16 11:58N 38°41' W 009°18'3 7.0
2018-Aug-16 11:30N 38°41' W 009°14'0 0.4
2018-Aug-16 11:00N 38°42' W 009°14'2 4.9
2018-Aug-16 10:30N 38°41' W 009°18'2 3.6
2018-Aug-16 10:00N 38°40' W 009°19'3 6.3
2018-Aug-16 09:30N 38°41' W 009°23'2 3.0
2018-Aug-16 09:00N 38°42' W 009°25'0 0.0
2018-Aug-14 14:24N 38°42' W 009°25'0 0.0
2018-Aug-14 13:39N 38°42' W 009°25'0 0.0
2018-Aug-14 13:18N 38°42' W 009°25'0 0.0
2018-Aug-14 12:57N 38°42' W 009°25'0 0.7
2018-Aug-14 12:17N 38°42' W 009°25'1 2.0
2018-Aug-14 12:00N 38°41' W 009°24'2 3.4
2018-Aug-14 11:30N 38°40' W 009°22'0 0.6
2018-Aug-14 10:59N 38°41' W 009°23'2 3.5
2018-Aug-14 10:30N 38°42' W 009°24'2 0.1
2018-Aug-13 11:04N 38°40' W 009°26'1 3.6
2018-Aug-13 10:42N 38°41' W 009°24'1 3.4
2018-Aug-13 10:28N 38°41' W 009°24'1 0.0
2018-Aug-11 20:21N 38°42' W 009°25'0 0.5
2018-Aug-11 19:58N 38°42' W 009°25'1 2.0
2018-Aug-11 19:30N 38°41' W 009°26'1 1.1
2018-Aug-11 19:00N 38°41' W 009°27'0 0.9
2018-Aug-11 18:30N 38°41' W 009°26'1 2.1
2018-Aug-11 17:58N 38°42' W 009°25'0 0.0
2018-Aug-11 17:22N 38°42' W 009°25'0 0.0
2018-Aug-11 16:58N 38°42' W 009°25'0 0.0
2018-Aug-11 16:28N 38°42' W 009°25'0 0.0
2018-Aug-11 15:58N 38°42' W 009°25'0 0.0
2018-Aug-11 15:16N 38°42' W 009°25'0 0.0
2018-Aug-11 14:46N 38°42' W 009°25'0 0.0
2018-Aug-11 14:25N 38°42' W 009°25'0 0.0
2018-Aug-11 13:58N 38°42' W 009°25'0 0.5
2018-Aug-11 13:27N 38°42' W 009°25'0 0.0
2018-Aug-11 13:00N 38°42' W 009°25'0 0.0
2018-Aug-11 12:30N 38°42' W 009°25'0 0.4
2018-Aug-11 11:55N 38°42' W 009°25'1 2.1
2018-Aug-11 11:29N 38°41' W 009°25'0 0.8
2018-Aug-11 11:00N 38°41' W 009°25'1 2.0
2018-Aug-11 10:30N 38°42' W 009°24'1 1.7
2018-Aug-11 10:00N 38°42' W 009°25'0 0.0
2018-Aug-10 12:32N 38°42' W 009°25'0 0.0
2018-Aug-10 12:17N 38°42' W 009°25'1 1.9
2018-Aug-10 11:59N 38°41' W 009°24'2 3.2
2018-Aug-10 11:29N 38°40' W 009°23'3 5.3
2018-Aug-10 11:00N 38°40' W 009°20'2 4.9
2018-Aug-10 10:29N 38°41' W 009°22'2 3.6
2018-Aug-10 09:55N 38°42' W 009°25'  
2018-Aug-06 14:56N 38°42' W 009°25'0 0.0
2018-Aug-06 14:27N 38°42' W 009°25'1 1.9
2018-Aug-06 13:59N 38°41' W 009°24'0 1.0
2018-Aug-06 13:30N 38°40' W 009°24'  

Dump ship's entire track history